createdAt,value
2022-10-19T00:02:22.436Z,59.38
2022-10-19T00:04:49.008Z,60.37
2022-10-19T00:07:15.595Z,59.45
2022-10-19T00:09:43.805Z,60.13
2022-10-19T00:12:10.972Z,59.82
2022-10-19T00:14:37.501Z,60.27
2022-10-19T00:17:04.026Z,61.08
2022-10-19T00:19:30.638Z,60.57
2022-10-19T00:21:57.282Z,60.68
2022-10-19T00:24:23.882Z,60.80
2022-10-19T00:26:50.420Z,59.77
2022-10-19T00:29:17.328Z,60.45
2022-10-19T00:31:43.990Z,60.35
2022-10-19T00:34:10.651Z,60.35
2022-10-19T00:36:40.034Z,60.09
2022-10-19T00:39:10.900Z,59.97
2022-10-19T00:41:38.734Z,59.29
2022-10-19T00:44:28.315Z,59.12
2022-10-19T00:46:59.165Z,59.05
2022-10-19T00:49:29.840Z,60.43
2022-10-19T00:52:01.539Z,60.15
2022-10-19T00:54:28.310Z,59.62
2022-10-19T00:56:57.815Z,59.85
2022-10-19T00:59:26.642Z,60.04
2022-10-19T01:01:54.267Z,59.25
2022-10-19T01:04:23.452Z,59.66
2022-10-19T01:09:23.239Z,60.45
2022-10-19T01:12:15.175Z,59.88
2022-10-19T01:14:50.693Z,59.49
2022-10-19T01:17:52.485Z,59.76
2022-10-19T01:20:33.643Z,60.49
2022-10-19T01:23:24.229Z,59.92
2022-10-19T01:26:19.909Z,60.33
2022-10-19T01:29:08.238Z,60.18
2022-10-19T01:31:49.156Z,60.14
2022-10-19T01:34:48.894Z,59.62
2022-10-19T01:37:35.588Z,59.40
2022-10-19T01:40:02.395Z,59.12
2022-10-19T01:42:46.761Z,60.23
2022-10-19T01:45:21.693Z,60.77
2022-10-19T01:47:52.751Z,61.58
2022-10-19T01:50:27.250Z,60.59
2022-10-19T01:52:55.483Z,60.01
2022-10-19T01:55:24.455Z,60.96
2022-10-19T01:57:59.193Z,61.29
2022-10-19T02:00:27.516Z,61.35
2022-10-19T02:02:56.028Z,60.59
2022-10-19T02:05:30.859Z,61.40
2022-10-19T02:08:05.839Z,60.93
2022-10-19T02:10:35.159Z,60.57
2022-10-19T02:13:03.100Z,60.35
2022-10-19T02:15:34.711Z,60.08
2022-10-19T02:18:03.331Z,59.84
2022-10-19T02:20:30.675Z,60.72
2022-10-19T02:22:57.215Z,61.23
2022-10-19T02:25:25.033Z,60.91
2022-10-19T02:27:52.530Z,61.87
2022-10-19T02:30:20.190Z,61.54
2022-10-19T02:32:46.765Z,60.34
2022-10-19T02:35:14.698Z,59.42
2022-10-19T02:37:42.014Z,60.64
2022-10-19T02:40:09.480Z,61.24
2022-10-19T02:42:42.671Z,62.88
2022-10-19T02:45:29.389Z,62.30
2022-10-19T02:48:01.087Z,61.74
2022-10-19T02:50:27.837Z,61.20
2022-10-19T02:52:54.394Z,60.75
2022-10-19T02:55:21.017Z,60.55
2022-10-19T02:57:47.540Z,61.50
2022-10-19T03:00:14.714Z,61.85
2022-10-19T03:02:41.246Z,60.33
2022-10-19T03:05:09.193Z,61.18
2022-10-19T03:07:36.242Z,60.88
2022-10-19T03:10:03.338Z,61.33
2022-10-19T03:12:29.945Z,61.17
2022-10-19T03:14:56.561Z,60.54
2022-10-19T03:17:23.093Z,60.24
2022-10-19T03:19:49.691Z,60.46
2022-10-19T03:22:16.262Z,60.36
2022-10-19T03:24:42.810Z,61.86
2022-10-19T03:27:09.355Z,61.49
2022-10-19T03:29:36.000Z,60.49
2022-10-19T03:32:02.569Z,61.37
2022-10-19T03:34:29.309Z,61.72
2022-10-19T03:36:56.777Z,62.44
2022-10-19T03:39:23.388Z,61.33
2022-10-19T03:41:50.000Z,61.76
2022-10-19T03:44:16.724Z,61.68
2022-10-19T03:46:43.417Z,61.15
2022-10-19T03:49:10.238Z,61.56
2022-10-19T03:51:36.836Z,61.85
2022-10-19T03:54:06.340Z,61.23
2022-10-19T03:56:33.954Z,61.10
2022-10-19T03:59:01.927Z,61.66
2022-10-19T04:01:37.923Z,62.22
2022-10-19T04:04:07.541Z,61.70
2022-10-19T04:06:37.403Z,61.16
2022-10-19T04:09:05.569Z,60.66
2022-10-19T04:11:33.759Z,61.02
2022-10-19T04:14:00.973Z,60.93
2022-10-19T04:16:29.570Z,61.20
2022-10-19T04:18:56.595Z,61.26
2022-10-19T04:21:27.888Z,61.11
2022-10-19T04:24:00.127Z,60.84
2022-10-19T04:26:27.045Z,60.13
2022-10-19T04:28:53.890Z,61.33
2022-10-19T04:31:20.525Z,61.12
2022-10-19T04:36:19.352Z,60.57
2022-10-19T04:38:46.181Z,60.66
2022-10-19T04:41:15.307Z,59.56
2022-10-19T04:43:45.120Z,60.10
2022-10-19T04:46:19.363Z,59.55
2022-10-19T04:48:47.896Z,60.73
2022-10-19T04:51:15.763Z,61.52
2022-10-19T04:53:43.456Z,60.45
2022-10-19T04:56:13.567Z,60.83
2022-10-19T04:58:40.106Z,61.04
2022-10-19T05:01:18.394Z,60.85
2022-10-19T05:03:45.758Z,60.84
2022-10-19T05:06:13.574Z,61.27
2022-10-19T05:08:40.223Z,59.95
2022-10-19T05:11:10.517Z,60.07
2022-10-19T05:13:37.463Z,60.12
2022-10-19T05:16:06.529Z,60.85
2022-10-19T05:18:34.385Z,60.37
2022-10-19T05:21:14.516Z,60.25
2022-10-19T05:23:41.805Z,60.63
2022-10-19T05:26:19.773Z,60.23
2022-10-19T05:28:51.537Z,61.23
2022-10-19T05:31:20.261Z,61.02
2022-10-19T05:33:47.051Z,60.47
2022-10-19T05:36:21.010Z,60.77
2022-10-19T05:38:49.836Z,61.69
2022-10-19T05:41:17.123Z,61.54
2022-10-19T05:43:44.302Z,61.56
2022-10-19T05:46:13.805Z,60.92
2022-10-19T05:48:40.946Z,60.90
2022-10-19T05:51:10.211Z,60.91
2022-10-19T05:56:09.597Z,60.73
2022-10-19T05:58:36.125Z,61.63
2022-10-19T06:01:03.261Z,61.25
2022-10-19T06:03:30.717Z,61.71
2022-10-19T06:05:58.213Z,61.53
2022-10-19T06:08:25.012Z,60.96
2022-10-19T06:10:51.758Z,62.31
2022-10-19T06:13:19.438Z,61.76
2022-10-19T06:15:50.263Z,61.69
2022-10-19T06:18:16.768Z,61.10
2022-10-19T06:20:43.270Z,60.89
2022-10-19T06:23:09.799Z,60.88
2022-10-19T06:25:36.683Z,61.19
2022-10-19T06:28:03.642Z,62.39
2022-10-19T06:30:30.329Z,61.92
2022-10-19T06:32:59.122Z,61.33
2022-10-19T06:35:25.882Z,61.98
2022-10-19T06:37:52.416Z,61.30
2022-10-19T06:40:19.095Z,60.64
2022-10-19T06:42:45.718Z,60.78
2022-10-19T06:45:12.261Z,60.28
2022-10-19T06:47:39.174Z,60.12
2022-10-19T06:50:06.893Z,60.10
2022-10-19T06:52:35.317Z,60.54
2022-10-19T06:55:02.619Z,60.17
2022-10-19T06:57:29.394Z,61.45
2022-10-19T06:59:55.979Z,65.27
2022-10-19T07:02:22.554Z,62.59
2022-10-19T07:04:49.096Z,61.69
2022-10-19T07:07:15.850Z,61.27
2022-10-19T07:09:42.391Z,61.40
2022-10-19T07:12:10.724Z,62.91
2022-10-19T07:14:39.601Z,61.86
2022-10-19T07:17:07.006Z,61.19
2022-10-19T07:19:34.350Z,61.87
2022-10-19T07:22:00.892Z,61.71
2022-10-19T07:24:27.500Z,61.07
2022-10-19T07:26:54.240Z,60.56
2022-10-19T07:29:21.191Z,60.19
2022-10-19T07:31:47.991Z,61.48
2022-10-19T07:34:14.971Z,60.36
2022-10-19T07:36:45.345Z,60.49
2022-10-19T07:39:13.119Z,60.33
2022-10-19T07:41:39.844Z,60.29
2022-10-19T07:44:07.457Z,60.92
2022-10-19T07:46:38.663Z,61.70
2022-10-19T07:49:09.885Z,63.45
2022-10-19T07:51:38.543Z,64.62
2022-10-19T07:54:05.232Z,63.50
2022-10-19T07:56:32.090Z,64.01
2022-10-19T07:59:00.139Z,63.22
2022-10-19T08:01:31.985Z,62.42
2022-10-19T08:06:46.573Z,61.01
2022-10-19T08:09:27.620Z,63.45
2022-10-19T08:11:59.763Z,64.44
2022-10-19T08:14:26.401Z,64.46
2022-10-19T08:16:52.911Z,65.35
2022-10-19T08:19:19.442Z,65.50
2022-10-19T08:21:46.921Z,64.75
2022-10-19T08:24:15.224Z,65.03
2022-10-19T08:26:42.268Z,64.01
2022-10-19T08:29:14.960Z,65.76
2022-10-19T08:31:43.032Z,65.56
2022-10-19T08:34:09.798Z,65.56
2022-10-19T08:36:37.114Z,66.67
2022-10-19T08:39:06.030Z,68.41
2022-10-19T08:41:50.081Z,70.97
2022-10-19T08:44:49.161Z,69.26
2022-10-19T08:47:35.930Z,69.54
2022-10-19T08:50:03.673Z,69.53
2022-10-19T08:52:34.788Z,70.58
2022-10-19T08:55:08.907Z,70.90
2022-10-19T08:58:04.889Z,71.34
2022-10-19T09:00:48.245Z,71.83
2022-10-19T09:03:37.667Z,70.57
2022-10-19T09:06:26.984Z,70.76
2022-10-19T09:08:55.727Z,70.62
2022-10-19T09:11:46.206Z,71.05
2022-10-19T09:14:33.004Z,71.38
2022-10-19T09:17:04.025Z,70.71
2022-10-19T09:19:31.950Z,71.63
2022-10-19T09:22:23.530Z,72.93
2022-10-19T09:24:55.459Z,72.41
2022-10-19T09:27:30.035Z,72.57
2022-10-19T09:30:05.447Z,73.18
2022-10-19T09:32:38.674Z,72.02
2022-10-19T09:35:17.413Z,72.10
2022-10-19T09:37:47.002Z,71.33
2022-10-19T09:40:18.443Z,72.52
2022-10-19T09:42:45.065Z,71.86
2022-10-19T09:45:26.092Z,72.24
2022-10-19T09:47:53.353Z,71.95
2022-10-19T09:50:25.731Z,71.93
2022-10-19T09:52:57.478Z,70.91
2022-10-19T09:55:37.796Z,71.34
2022-10-19T09:58:13.500Z,71.60
2022-10-19T10:00:50.722Z,71.38
2022-10-19T10:03:29.429Z,70.97
2022-10-19T10:05:59.216Z,71.69
2022-10-19T10:08:36.830Z,71.16
2022-10-19T10:11:22.243Z,71.17
2022-10-19T10:13:51.684Z,70.83
2022-10-19T10:16:22.196Z,70.95
2022-10-19T10:18:56.822Z,70.96
2022-10-19T10:21:33.917Z,70.96
2022-10-19T10:24:17.873Z,70.52
2022-10-19T10:26:56.736Z,70.94
2022-10-19T10:29:35.158Z,69.69
2022-10-19T10:32:06.337Z,70.95
2022-10-19T10:34:58.393Z,70.83
2022-10-19T10:37:42.670Z,71.48
2022-10-19T10:40:24.684Z,71.39
2022-10-19T10:42:55.123Z,71.39
2022-10-19T10:45:24.797Z,71.67
2022-10-19T10:47:53.125Z,71.51
2022-10-19T10:50:25.881Z,70.54
2022-10-19T10:53:07.387Z,70.60
2022-10-19T10:55:34.570Z,70.78
2022-10-19T10:58:13.941Z,71.26
2022-10-19T11:00:41.029Z,71.08
2022-10-19T11:03:19.953Z,69.95
2022-10-19T11:05:59.296Z,70.17
2022-10-19T11:08:49.178Z,70.37
2022-10-19T11:11:17.799Z,69.78
2022-10-19T11:13:56.025Z,69.87
2022-10-19T11:16:28.898Z,69.78
2022-10-19T11:19:02.077Z,69.37
2022-10-19T11:21:40.330Z,69.69
2022-10-19T11:24:18.117Z,69.27
2022-10-19T11:27:28.231Z,68.54
2022-10-19T11:30:01.477Z,69.01
2022-10-19T11:32:36.670Z,68.42
2022-10-19T11:35:09.275Z,68.13
2022-10-19T11:37:45.654Z,67.72
2022-10-19T11:40:45.841Z,67.77
2022-10-19T11:43:37.001Z,68.39
2022-10-19T11:46:21.717Z,67.85
2022-10-19T11:49:13.534Z,67.89
2022-10-19T11:52:13.011Z,67.84
2022-10-19T11:55:14.038Z,68.38
2022-10-19T11:58:05.639Z,67.98
2022-10-19T12:00:44.638Z,67.36
2022-10-19T12:03:24.798Z,67.74
2022-10-19T12:06:17.978Z,67.93
2022-10-19T12:09:15.287Z,67.87
2022-10-19T12:12:03.539Z,67.83
2022-10-19T12:14:39.587Z,68.46
2022-10-19T12:17:23.377Z,68.96
2022-10-19T12:19:55.238Z,68.25
2022-10-19T12:22:25.107Z,67.35
2022-10-19T12:24:55.433Z,67.61
2022-10-19T12:27:30.577Z,66.09
2022-10-19T12:30:02.756Z,65.46
2022-10-19T12:32:36.502Z,65.72
2022-10-19T12:35:47.284Z,65.08
2022-10-19T12:38:46.140Z,64.80
2022-10-19T12:41:44.283Z,64.78
2022-10-19T12:44:13.900Z,64.34
2022-10-19T12:46:49.819Z,63.70
2022-10-19T12:49:46.056Z,64.34
2022-10-19T12:52:14.942Z,64.02
2022-10-19T12:54:43.641Z,63.64
2022-10-19T12:57:30.656Z,63.56
2022-10-19T13:00:00.842Z,63.60
2022-10-19T13:02:35.307Z,63.92
2022-10-19T13:05:03.267Z,63.51
2022-10-19T13:07:34.830Z,64.19
2022-10-19T13:10:05.544Z,63.71
2022-10-19T13:12:44.788Z,64.03
2022-10-19T13:15:35.694Z,63.85
2022-10-19T13:18:12.861Z,64.05
2022-10-19T13:23:06.945Z,64.58
2022-10-19T13:25:40.673Z,64.45
2022-10-19T13:28:07.337Z,64.80
2022-10-19T13:30:39.584Z,64.42
2022-10-19T13:33:24.824Z,64.53
2022-10-19T13:36:00.491Z,64.34
2022-10-19T13:41:22.382Z,65.08
2022-10-19T13:43:55.436Z,65.29
2022-10-19T13:46:29.738Z,64.38
2022-10-19T13:49:13.663Z,64.87
2022-10-19T13:51:58.685Z,64.96
2022-10-19T13:55:02.916Z,64.68
2022-10-19T13:58:06.755Z,64.55
2022-10-19T14:01:04.220Z,64.56
2022-10-19T14:03:33.709Z,64.58
2022-10-19T14:06:15.060Z,64.51
2022-10-19T14:08:47.655Z,64.61
2022-10-19T14:11:18.176Z,64.86
2022-10-19T14:13:46.279Z,64.12
2022-10-19T14:16:21.899Z,64.17
2022-10-19T14:18:55.915Z,63.17
2022-10-19T14:21:31.824Z,64.04
2022-10-19T14:23:58.556Z,63.66
2022-10-19T14:26:30.821Z,64.12
2022-10-19T14:28:59.863Z,63.89
2022-10-19T14:31:34.132Z,64.30
2022-10-19T14:34:03.811Z,64.09
2022-10-19T14:36:39.046Z,63.96
2022-10-19T14:39:07.561Z,63.81
2022-10-19T14:41:36.381Z,64.46
2022-10-19T14:44:30.743Z,63.96
2022-10-19T14:47:01.181Z,63.55
2022-10-19T14:49:28.107Z,63.87
2022-10-19T14:52:00.533Z,63.41
2022-10-19T14:54:32.552Z,63.03
2022-10-19T14:57:05.195Z,63.74
2022-10-19T14:59:38.263Z,63.35
2022-10-19T15:02:17.124Z,63.15
2022-10-19T15:04:44.071Z,64.28
2022-10-19T15:07:36.998Z,64.13
2022-10-19T15:10:08.373Z,63.94
2022-10-19T15:12:41.349Z,63.83
2022-10-19T15:15:17.238Z,63.93
2022-10-19T15:18:06.357Z,63.55
2022-10-19T15:20:49.497Z,62.75
2022-10-19T15:23:45.026Z,62.28
2022-10-19T15:26:22.278Z,62.62
2022-10-19T15:28:49.419Z,63.54
2022-10-19T15:31:23.856Z,63.18
2022-10-19T15:33:59.668Z,63.26
2022-10-19T15:36:27.943Z,63.22
2022-10-19T15:39:06.125Z,64.46
2022-10-19T15:41:44.404Z,64.88
2022-10-19T15:44:40.979Z,64.46
2022-10-19T15:47:18.778Z,64.03
2022-10-19T15:49:45.724Z,63.52
2022-10-19T15:52:17.245Z,63.00
2022-10-19T15:54:47.523Z,62.81
2022-10-19T15:57:37.344Z,62.08
2022-10-19T16:00:17.203Z,62.56
2022-10-19T16:02:44.215Z,62.31
2022-10-19T16:05:11.444Z,62.47
2022-10-19T16:07:40.816Z,61.84
2022-10-19T16:10:11.409Z,62.40
2022-10-19T16:12:37.983Z,62.66
2022-10-19T16:15:05.145Z,62.06
2022-10-19T16:17:33.116Z,62.18
2022-10-19T16:19:59.877Z,61.93
2022-10-19T16:22:26.398Z,61.83
2022-10-19T16:24:52.933Z,61.57
2022-10-19T16:27:19.492Z,61.63
2022-10-19T16:29:46.062Z,61.86
2022-10-19T16:32:12.656Z,62.17
2022-10-19T16:34:39.303Z,62.08
2022-10-19T16:37:07.280Z,61.23
2022-10-19T16:39:34.816Z,61.61
2022-10-19T16:42:01.513Z,61.44
2022-10-19T16:44:28.364Z,62.61
2022-10-19T16:46:59.262Z,61.53
2022-10-19T16:49:26.641Z,61.57
2022-10-19T16:51:57.424Z,61.84
2022-10-19T16:54:25.718Z,62.07
2022-10-19T16:56:52.637Z,61.97
2022-10-19T16:59:19.394Z,62.21
2022-10-19T17:01:46.677Z,62.10
2022-10-19T17:04:17.121Z,61.88
2022-10-19T17:06:43.790Z,61.51
2022-10-19T17:11:57.069Z,62.85
2022-10-19T17:14:23.607Z,62.90
2022-10-19T17:16:50.458Z,63.06
2022-10-19T17:19:18.254Z,62.64
2022-10-19T17:21:45.140Z,61.76
2022-10-19T17:24:20.380Z,61.69
2022-10-19T17:26:51.255Z,62.08
2022-10-19T17:29:21.042Z,63.17
2022-10-19T17:31:48.642Z,62.81
2022-10-19T17:34:15.884Z,62.75
2022-10-19T17:36:45.143Z,62.80
2022-10-19T17:39:19.214Z,62.26
2022-10-19T17:41:47.524Z,62.44
2022-10-19T17:44:14.599Z,62.55
2022-10-19T17:46:41.606Z,62.19
2022-10-19T17:49:09.152Z,62.54
2022-10-19T17:51:36.978Z,62.31
2022-10-19T17:54:07.514Z,63.68
2022-10-19T17:56:35.530Z,63.56
2022-10-19T17:59:03.105Z,63.59
2022-10-19T18:01:30.869Z,62.68
2022-10-19T18:03:57.634Z,62.36
2022-10-19T18:06:31.553Z,63.82
2022-10-19T18:09:00.080Z,63.18
2022-10-19T18:11:29.762Z,63.29
2022-10-19T18:13:59.430Z,62.79
2022-10-19T18:16:29.495Z,63.00
2022-10-19T18:18:57.538Z,62.68
2022-10-19T18:21:30.489Z,62.26
2022-10-19T18:23:59.227Z,62.78
2022-10-19T18:26:28.100Z,62.29
2022-10-19T18:28:55.887Z,62.41
2022-10-19T18:31:30.715Z,63.29
2022-10-19T18:34:02.701Z,62.97
2022-10-19T18:36:30.693Z,62.88
2022-10-19T18:38:59.882Z,63.17
2022-10-19T18:41:27.511Z,63.30
2022-10-19T18:43:56.462Z,63.08
2022-10-19T18:46:24.539Z,62.81
2022-10-19T18:48:51.420Z,62.42
2022-10-19T18:51:19.182Z,62.67
2022-10-19T18:53:47.077Z,63.12
2022-10-19T18:56:18.154Z,63.56
2022-10-19T18:58:45.334Z,63.45
2022-10-19T19:01:13.345Z,63.54
2022-10-19T19:03:45.470Z,64.25
2022-10-19T19:06:34.732Z,64.39
2022-10-19T19:09:04.458Z,63.47
2022-10-19T19:11:36.067Z,63.15
2022-10-19T19:14:14.470Z,62.75
2022-10-19T19:16:43.154Z,63.10
2022-10-19T19:19:11.985Z,62.88
2022-10-19T19:21:41.029Z,62.47
2022-10-19T19:24:08.095Z,62.95
2022-10-19T19:26:38.870Z,62.65
2022-10-19T19:29:05.427Z,62.10
2022-10-19T19:31:32.035Z,63.09
2022-10-19T19:34:03.059Z,62.42
2022-10-19T19:36:29.746Z,62.50
2022-10-19T19:38:56.819Z,62.60
2022-10-19T19:41:24.582Z,62.61
2022-10-19T19:43:51.504Z,63.04
2022-10-19T19:46:19.470Z,62.82
2022-10-19T19:48:47.584Z,62.70
2022-10-19T19:51:17.784Z,62.18
2022-10-19T19:53:45.418Z,62.04
2022-10-19T19:56:13.203Z,62.59
2022-10-19T19:58:41.000Z,62.00
2022-10-19T20:01:20.637Z,62.23
2022-10-19T20:03:48.803Z,62.74
2022-10-19T20:06:18.726Z,62.13
2022-10-19T20:08:47.480Z,61.68
2022-10-19T20:11:17.437Z,62.46
2022-10-19T20:13:45.566Z,62.16
2022-10-19T20:16:18.027Z,62.24
2022-10-19T20:18:48.837Z,62.56
2022-10-19T20:21:15.973Z,61.57
2022-10-19T20:23:46.627Z,61.67
2022-10-19T20:26:18.366Z,63.03
2022-10-19T20:28:46.269Z,62.79
2022-10-19T20:31:13.565Z,62.26
2022-10-19T20:33:42.111Z,62.23
2022-10-19T20:36:14.264Z,61.71
2022-10-19T20:38:46.273Z,61.43
2022-10-19T20:41:13.708Z,61.52
2022-10-19T20:43:40.345Z,61.23
2022-10-19T20:46:13.531Z,61.00
2022-10-19T20:48:40.833Z,61.96
2022-10-19T20:51:30.631Z,62.38
2022-10-19T20:54:01.800Z,62.33
2022-10-19T20:56:31.402Z,62.24
2022-10-19T21:01:36.484Z,62.80
2022-10-19T21:04:05.383Z,63.00
2022-10-19T21:06:38.093Z,61.47
2022-10-19T21:09:04.811Z,61.87
2022-10-19T21:11:34.792Z,62.11
2022-10-19T21:14:07.241Z,61.72
2022-10-19T21:16:35.228Z,61.54
2022-10-19T21:19:04.305Z,61.35
2022-10-19T21:21:34.011Z,61.30
2022-10-19T21:24:11.075Z,61.23
2022-10-19T21:26:38.472Z,61.43
2022-10-19T21:29:07.357Z,62.18
2022-10-19T21:31:35.194Z,61.71
2022-10-19T21:34:06.574Z,61.26
2022-10-19T21:36:33.501Z,62.01
2022-10-19T21:39:00.707Z,62.24
2022-10-19T21:41:27.536Z,62.07
2022-10-19T21:43:54.743Z,61.88
2022-10-19T21:46:22.950Z,61.52
2022-10-19T21:48:50.089Z,60.99
2022-10-19T21:51:39.191Z,61.21
2022-10-19T21:54:07.913Z,61.99
2022-10-19T21:56:35.134Z,61.84
2022-10-19T21:59:01.742Z,61.79
2022-10-19T22:01:30.161Z,62.31
2022-10-19T22:03:58.487Z,61.93
2022-10-19T22:06:27.282Z,62.40
2022-10-19T22:08:54.296Z,62.51
2022-10-19T22:11:21.377Z,61.87
2022-10-19T22:13:48.131Z,61.95
2022-10-19T22:16:17.714Z,62.99
2022-10-19T22:18:44.723Z,62.72
2022-10-19T22:21:20.359Z,62.59
2022-10-19T22:23:53.327Z,62.55
2022-10-19T22:26:25.540Z,62.53
2022-10-19T22:28:54.240Z,62.63
2022-10-19T22:31:21.320Z,62.96
2022-10-19T22:33:47.955Z,63.26
2022-10-19T22:36:14.536Z,62.97
2022-10-19T22:38:41.065Z,63.43
2022-10-19T22:41:09.127Z,63.03
2022-10-19T22:43:36.872Z,63.95
2022-10-19T22:46:03.458Z,64.04
2022-10-19T22:48:30.002Z,64.69
2022-10-19T22:50:56.661Z,64.87
2022-10-19T22:53:24.077Z,63.79
2022-10-19T22:55:51.639Z,64.35
2022-10-19T22:58:19.078Z,64.82
2022-10-19T23:00:45.619Z,64.20
2022-10-19T23:03:12.253Z,63.40
2022-10-19T23:05:38.799Z,63.36
2022-10-19T23:08:05.568Z,63.56
2022-10-19T23:10:32.645Z,64.01
2022-10-19T23:12:59.349Z,66.78
2022-10-19T23:15:26.055Z,64.31
2022-10-19T23:17:52.606Z,64.16
2022-10-19T23:20:19.162Z,63.46
2022-10-19T23:22:46.009Z,65.36
2022-10-19T23:25:12.938Z,63.56
2022-10-19T23:27:39.730Z,63.13
2022-10-19T23:30:06.997Z,63.49
2022-10-19T23:32:33.530Z,63.55
2022-10-19T23:35:00.070Z,63.77
2022-10-19T23:37:26.722Z,64.39
2022-10-19T23:39:53.302Z,64.68
2022-10-19T23:42:19.865Z,64.48
2022-10-19T23:44:46.595Z,63.99
2022-10-19T23:47:13.954Z,63.43
2022-10-19T23:49:40.528Z,64.12
2022-10-19T23:52:07.389Z,64.60
2022-10-19T23:54:33.956Z,64.21
2022-10-19T23:57:00.676Z,63.79
2022-10-19T23:59:27.635Z,64.70
